Map

Track Data

SID SEASON NUMBER BASIN SUBBASIN NAME ISO_TIME NATURE LAT LON WMO_WIND WMO_PRES WMO_AGENCY TRACK_TYPE DIST2LAND LANDFALL IFLAG USA_AGENCY USA_ATCF_ID USA_LAT USA_LON USA_RECORD USA_STATUS USA_WIND USA_PRES USA_SSHS USA_R34_NE USA_R34_SE USA_R34_SW USA_R34_NW USA_R50_NE USA_R50_SE USA_R50_SW USA_R50_NW USA_R64_NE USA_R64_SE USA_R64_SW USA_R64_NW USA_POCI USA_ROCI USA_RMW USA_EYE TOKYO_LAT TOKYO_LON TOKYO_GRADE TOKYO_WIND TOKYO_PRES TOKYO_R50_DIR TOKYO_R50_LONG TOKYO_R50_SHORT TOKYO_R30_DIR TOKYO_R30_LONG TOKYO_R30_SHORT TOKYO_LAND CMA_LAT CMA_LON CMA_CAT CMA_WIND CMA_PRES HKO_LAT HKO_LON HKO_CAT HKO_WIND HKO_PRES NEWDELHI_LAT NEWDELHI_LON NEWDELHI_GRADE NEWDELHI_WIND NEWDELHI_PRES NEWDELHI_CI NEWDELHI_DP NEWDELHI_POCI REUNION_LAT REUNION_LON REUNION_TYPE REUNION_WIND REUNION_PRES REUNION_TNUM REUNION_CI REUNION_RMW REUNION_R34_NE REUNION_R34_SE REUNION_R34_SW REUNION_R34_NW REUNION_R50_NE REUNION_R50_SE REUNION_R50_SW REUNION_R50_NW REUNION_R64_NE REUNION_R64_SE REUNION_R64_SW REUNION_R64_NW BOM_LAT BOM_LON BOM_TYPE BOM_WIND BOM_PRES BOM_TNUM BOM_CI BOM_RMW BOM_R34_NE BOM_R34_SE BOM_R34_SW BOM_R34_NW BOM_R50_NE BOM_R50_SE BOM_R50_SW BOM_R50_NW BOM_R64_NE BOM_R64_SE BOM_R64_SW BOM_R64_NW BOM_ROCI BOM_POCI BOM_EYE BOM_POS_METHOD BOM_PRES_METHOD NADI_LAT NADI_LON NADI_CAT NADI_WIND NADI_PRES WELLINGTON_LAT WELLINGTON_LON WELLINGTON_WIND WELLINGTON_PRES DS824_LAT DS824_LON DS824_STAGE DS824_WIND DS824_PRES TD9636_LAT TD9636_LON TD9636_STAGE TD9636_WIND TD9636_PRES TD9635_LAT TD9635_LON TD9635_WIND TD9635_PRES TD9635_ROCI NEUMANN_LAT NEUMANN_LON NEUMANN_CLASS NEUMANN_WIND NEUMANN_PRES MLC_LAT MLC_LON MLC_CLASS MLC_WIND MLC_PRES USA_GUST BOM_GUST BOM_GUST_PER REUNION_GUST REUNION_GUST_PER USA_SEAHGT USA_SEARAD_NE USA_SEARAD_SE USA_SEARAD_SW USA_SEARAD_NW STORM_SPEED STORM_DIR
1964278N07156 1964 92 WP MM DOT 1964-10-03 18:00:00 TS 7.00000 156.000 main 1225 1182 __O___________ -1 7.00000 156.000 0 1006 20 270
1964278N07156 1964 92 WP MM DOT 1964-10-03 21:00:00 TS 7.00030 155.012 main 1178 1143 __P___________ -1 7.00030 155.012 0 1006 20 270
1964278N07156 1964 92 WP MM DOT 1964-10-04 00:00:00 TS 7.00000 154.000 main 1140 1111 __O___________ -1 7.00000 154.000 0 1006 20 270
1964278N07156 1964 92 WP MM DOT 1964-10-04 03:00:00 TS 7.00001 152.963 main 1111 1093 __P___________ -1 7.00001 152.963 0 1006 20 270
1964278N07156 1964 92 WP MM DOT 1964-10-04 06:00:00 TS 7.00000 152.000 main 1093 1087 __O___________ -1 7.00000 152.000 0 1006 18 270
1964278N07156 1964 92 WP MM DOT 1964-10-04 09:00:00 TS 6.99984 151.175 main 1087 1076 __P___________ -1 6.99984 151.175 0 1006 15 270
1964278N07156 1964 92 WP MM DOT 1964-10-04 12:00:00 TS 7.00000 150.500 main 1076 1059 __O___________ -1 7.00000 150.500 0 1006 12 270
1964278N07156 1964 92 WP MM DOT 1964-10-04 15:00:00 TS 6.99967 150.000 main 1059 1046 __P___________ -1 6.99967 150.000 0 1006 10 270
1964278N07156 1964 92 WP MM DOT 1964-10-04 18:00:00 TS 7.00000 149.500 main 1046 1031 __O___________ -1 7.00000 149.500 0 1006 12 270
1964278N07156 1964 92 WP MM DOT 1964-10-04 21:00:00 TS 7.00004 148.787 main 1031 1021 __P___________ -1 7.00004 148.787 0 1005 15 270
1964278N07156 1964 92 WP MM DOT 1964-10-05 00:00:00 TS 7.00000 148.000 main 1021 1019 __O___________ -1 7.00000 148.000 0 1004 15 270
1964278N07156 1964 92 WP MM DOT 1964-10-05 03:00:00 TS 6.99985 147.258 main 1019 1019 __P___________ -1 6.99985 147.258 0 1004 15 270
1964278N07156 1964 92 WP MM DOT 1964-10-05 06:00:00 TS 7.00000 146.500 main 1019 1019 __O___________ -1 7.00000 146.500 0 1004 15 270
1964278N07156 1964 92 WP MM DOT 1964-10-05 09:00:00 TS 6.99978 145.730 main 1024 1024 __P___________ -1 6.99978 145.730 0 1004 16 270
1964278N07156 1964 92 WP MM DOT 1964-10-05 12:00:00 TS 7.00000 144.900 main 1037 1037 __O___________ -1 7.00000 144.900 0 1004 17 270
1964278N07156 1964 92 WP MM DOT 1964-10-05 15:00:00 TS 6.98489 143.980 main 1059 1059 __P___________ -1 6.98489 143.980 0 1004 19 270
1964278N07156 1964 92 WP MM DOT 1964-10-05 18:00:00 TS 7.00000 143.000 main 1092 1064 __O___________ -1 7.00000 143.000 0 1004 20 273
1964278N07156 1964 92 WP MM DOT 1964-10-05 21:00:00 TS 7.07733 142.007 main 1062 1037 __P___________ -1 7.07733 142.007 0 1004 20 276
1964278N07156 1964 92 WP MM DOT 1964-10-06 00:00:00 TS 7.20000 141.000 main 1034 1018 __O___________ -1 7.20000 141.000 0 1004 20 277
1964278N07156 1964 92 WP MM DOT 1964-10-06 03:00:00 TS 7.32712 140.022 main 1015 986 __P___________ -1 7.32712 140.022 0 1004 32 282
1964278N07156 1964 92 WP MM DOT 1964-10-06 06:00:00 TS 7.86250 137.800 main 994 986 O_OO_____O_O__ jtwc_wp WP281964 8.30000 136.400 35 0 7.50000 139.000 1 29 1004 8.00000 137.200 TD 30 997 8.30000 136.400 TC 35 8.30000 136.400 35 997 120 36 284
1964278N07156 1964 92 WP MM DOT 1964-10-06 09:00:00 TS 8.19856 136.482 main 1002 973 P_PP_____P_P__ WP281964 8.53027 135.653 35 0 7.71993 137.865 1 29 1003 8.16069 136.203 TD 30 997 8.53027 135.653 TC 35 8.53027 135.653 35 996 150 25 286
1964278N07156 1964 92 WP MM DOT 1964-10-06 12:00:00 TS 8.54118 135.394 main 973 880 O_OO_____OOO__ jtwc_wp WP281964 8.80000 134.900 35 0 8.00000 136.700 1 29 1003 8.40000 135.300 TD 30 998 8.80000 134.900 TC 35 8.80000 134.900 2 35 8.80000 134.900 35 996 180 21 290
1964278N07156 1964 92 WP MM DOT 1964-10-06 15:00:00 TS 8.92049 134.480 main 880 801 P_PP_____PPP__ WP281964 9.13489 134.142 37 0 8.31226 135.577 1 29 1003 8.76952 134.542 TD 32 997 9.13489 134.142 TC 37 9.15248 134.187 2 36 9.13489 134.142 37 996 180 19 294
1964278N07156 1964 92 WP MM DOT 1964-10-06 18:00:00 TS 9.30915 133.670 main 801 728 O_OO_____OPO__ jtwc_wp WP281964 9.50000 133.400 40 0 8.70000 134.500 1 29 1003 9.20000 133.800 TS 35 997 9.50000 133.400 TC 40 9.50347 133.468 2 37 9.50000 133.400 40 996 180 18 296
1964278N07156 1964 92 WP MM DOT 1964-10-06 21:00:00 TS 9.69533 132.865 main 728 653 P_PP_____PPP__ WP281964 9.84976 132.700 40 0 9.16228 133.462 1 29 1003 9.60769 132.885 TS 35 997 9.84976 132.700 TC 40 9.85271 132.741 2 38 9.84976 132.700 40 996 180 17 296
1964278N07156 1964 92 WP MM DOT 1964-10-07 00:00:00 TS 10.0833 132.083 main 653 585 O_OO_____OOO__ jtwc_wp WP281964 10.2000 132.000 40 0 9.70000 132.500 1 29 1003 10.0000 132.000 TS 35 997 10.2000 132.000 TC 40 10.2000 132.000 2 40 10.2000 132.000 40 996 180 17 297
1964278N07156 1964 92 WP MM DOT 1964-10-07 03:00:00 TS 10.4766 131.325 main 577 514 P_PP_____PPP__ WP281964 10.5499 131.257 42 0 10.2998 131.605 1 29 1003 10.3645 131.327 TS 37 997 10.5499 131.257 TC 42 10.5457 131.245 2 41 10.5499 131.257 42 996 180 17 298
1964278N07156 1964 92 WP MM DOT 1964-10-07 06:00:00 TS 10.8668 130.606 1006 tokyo main 518 448 OOOO_____OPO__ jtwc_wp WP281964 10.9000 130.500 45 0 10.9000 131.200 2 1006 0 0 0 10.9000 130.800 1 29 1003 10.7000 130.700 TS 40 997 10.9000 130.500 TC 45 10.8922 130.484 2 42 10.9000 130.500 45 996 180 16 298
1964278N07156 1964 92 WP MM DOT 1964-10-07 09:00:00 TS 11.2528 129.864 main 448 377 PPPP_____PPP__ WP281964 11.2424 129.742 45 0 11.4885 130.196 2 1005 0 0 11.4370 130.092 1 29 1003 10.9924 129.965 TS 40 997 11.2424 129.742 TC 45 11.2426 129.732 2 43 11.2424 129.742 45 996 210 17 298
1964278N07156 1964 92 WP MM DOT 1964-10-07 12:00:00 TS 11.6444 129.122 1004 tokyo main 366 304 OOOO_____OOO__ jtwc_wp WP281964 11.6000 129.000 45 0 12.0000 129.300 2 1004 0 0 0 11.9000 129.400 1 29 1003 11.3000 129.200 TS 40 997 11.6000 129.000 TC 45 11.6000 129.000 2 45 11.6000 129.000 45 996 240 16 299
1964278N07156 1964 92 WP MM DOT 1964-10-07 15:00:00 TS 12.0440 128.394 main 304 240 PPPP_____PPP__ WP281964 11.9998 128.285 45 0 12.3869 128.577 2 1004 0 0 12.2725 128.600 1 33 1002 11.6772 128.465 TS 40 997 11.9998 128.285 TC 45 11.9717 128.263 2 45 11.9998 128.285 45 995 240 16 299
1964278N07156 1964 92 WP MM DOT 1964-10-07 18:00:00 TS 12.4214 127.679 1004 tokyo main 240 172 OOOO_____OPO__ jtwc_wp WP281964 12.4000 127.600 45 0 12.7000 127.900 2 1004 0 0 0 12.6000 127.800 2 38 1002 12.1000 127.700 TS 40 997 12.4000 127.600 TC 45 12.3499 127.553 2 45 12.4000 127.600 45 995 240 16 298
1964278N07156 1964 92 WP MM DOT 1964-10-07 21:00:00 TS 12.7837 126.943 main 166 132 PPPP_____PPP__ WP281964 12.7575 126.912 45 0 13.0000 127.100 2 1002 0 0 12.9272 127.085 2 38 1002 12.5579 126.790 TS 40 996 12.7575 126.912 TC 45 12.7282 126.891 2 45 12.7575 126.912 45 995 210 16 298
1964278N07156 1964 92 WP MM DOT 1964-10-08 00:00:00 TS 13.1429 126.271 1000 tokyo main 133 117 OOOO_____OOO__ jtwc_wp WP281964 13.1000 126.300 45 0 13.3000 126.300 2 1000 0 0 0 13.3000 126.400 2 38 1002 13.0000 126.000 TS 40 996 13.1000 126.300 TC 45 13.1000 126.300 2 45 13.1000 126.300 45 995 180 14 301
1964278N07156 1964 92 WP MM DOT 1964-10-08 03:00:00 TS 13.5088 125.713 main 124 97 PPPP_____PPP__ WP281964 13.4498 125.812 45 0 13.6426 125.525 2 1000 0 0 13.7926 125.655 2 38 1001 13.3495 125.574 TS 40 995 13.4498 125.812 TC 45 13.4278 125.798 2 46 13.4498 125.812 45 995 210 12 307
1964278N07156 1964 92 WP MM DOT 1964-10-08 06:00:00 TS 13.8791 125.252 1000 tokyo main 97 63 OOOO_____OPO__ jtwc_wp WP281964 13.8000 125.400 45 0 14.0000 124.900 9 1000 0 0 0 14.3000 125.000 2 38 1001 13.7000 125.300 TS 40 995 13.8000 125.400 TC 45 13.7539 125.366 2 47 13.8000 125.400 45 995 240 11 311
1964278N07156 1964 92 WP MM DOT 1964-10-08 09:00:00 TS 14.2342 124.856 main 63 62 PPPP_____PPP__ WP281964 14.1199 124.992 47 0 14.3421 124.540 9 1000 0 0 14.7072 124.540 2 43 999 14.1274 124.957 TS 42 994 14.1199 124.992 TC 47 14.1030 124.976 2 48 14.1199 124.992 47 994 270 11 316
1964278N07156 1964 92 WP MM DOT 1964-10-08 12:00:00 TS 14.6286 124.500 1000 tokyo main 70 70 OOOO_____OOO__ jtwc_wp WP281964 14.5000 124.600 50 0 14.7000 124.300 9 1000 0 0 0 15.1000 124.200 3 48 997 14.6000 124.600 TS 45 993 14.5000 124.600 TC 50 14.5000 124.600 2 50 14.5000 124.600 50 994 300 11 321
1964278N07156 1964 92 WP MM DOT 1964-10-08 15:00:00 TS 15.1183 124.127 main 123 123 PPPP_____PPP__ WP281964 15.0274 124.200 52 0 15.0775 123.992 9 1000 0 0 15.5649 123.885 3 53 993 15.0925 124.207 TS 47 992 15.0274 124.200 TC 52 15.0109 124.201 2 53 15.0274 124.200 52 993 300 12 325
1964278N07156 1964 92 WP MM DOT 1964-10-08 18:00:00 TS 15.6378 123.758 1000 tokyo main 181 128 OOOO_____OPO__ jtwc_wp WP281964 15.6000 123.800 55 0 15.5000 123.700 9 1000 0 0 0 16.0000 123.600 3 58 990 15.6000 123.800 STS 50 991 15.6000 123.800 TC 55 15.5645 123.808 2 57 15.6000 123.800 55 992 300 12 326
1964278N07156 1964 92 WP MM DOT 1964-10-08 21:00:00 TS 16.1328 123.410 main 128 72 PPPP_____PPP__ WP281964 16.1224 123.407 60 0 16.0071 123.502 9 997 0 0 16.3223 123.330 3 63 988 16.1224 123.407 STS 52 990 16.1224 123.407 TC 60 16.1109 123.411 2 61 16.1224 123.407 60 990 270 12 324
1964278N07156 1964 92 WP MM DOT 1964-10-09 00:00:00 TS 16.5857 123.029 995 tokyo main 62 10 OOOO_____OOO__ jtwc_wp WP281964 16.6000 123.000 65 1 16.5000 123.200 9 995 0 0 0 16.6000 123.000 4 68 986 16.6000 123.000 STS 55 989 16.6000 123.000 TC 65 16.6000 123.000 3 65 16.6000 123.000 65 989 240 12 317
1964278N07156 1964 92 WP MM DOT 1964-10-09 03:00:00 TS 17.0013 122.569 main 10 0 PPPP_____PPP__ WP281964 17.0449 122.557 67 1 16.9028 122.603 9 992 0 0 16.9374 122.553 4 68 987 17.0172 122.588 STS 60 989 17.0449 122.557 TC 67 17.0172 122.568 3 65 17.0449 122.557 67 989 240 12 309
1964278N07156 1964 92 WP MM DOT 1964-10-09 06:00:00 TS 17.3235 122.060 990 tokyo main 0 0 OOOO_____OPO__ jtwc_wp WP281964 17.4000 122.100 70 1 17.2000 121.900 9 990 0 0 0 17.2000 122.000 4 68 988 17.3000 122.100 T 65 989 17.4000 122.100 TC 70 17.3646 122.123 3 65 17.4000 122.100 70 989 240 11 298
1964278N07156 1964 92 WP MM DOT 1964-10-09 09:00:00 TS 17.5310 121.534 main 0 0 PPPP_____PPP__ WP281964 17.6673 121.657 67 1 17.3947 121.292 9 990 0 0 17.2802 121.342 4 68 989 17.4102 121.465 T 65 990 17.6673 121.657 TC 67 17.6297 121.666 3 65 17.6673 121.657 67 990 210 11 287
1964278N07156 1964 92 WP MM DOT 1964-10-09 12:00:00 TS 17.6286 121.000 990 tokyo main 0 0 OOOO_____OOO__ jtwc_wp WP281964 17.8000 121.200 65 1 17.5000 120.700 9 990 0 0 0 17.3000 120.700 4 68 991 17.4000 120.800 T 65 991 17.8000 121.200 TC 65 17.8000 121.200 4 65 17.8000 121.200 65 991 180 10 276
1964278N07156 1964 92 WP MM DOT 1964-10-09 15:00:00 TS 17.6456 120.464 main 0 0 PPPP_____PPP__ WP281964 17.7800 120.700 65 1 17.5652 120.047 9 990 0 0 17.3923 120.198 4 68 991 17.3575 120.190 T 65 992 17.7800 120.700 TC 65 17.8644 120.715 4 65 17.7800 120.700 65 992 180 10 269
1964278N07156 1964 92 WP MM DOT 1964-10-09 18:00:00 TS 17.6200 119.975 990 tokyo main 31 31 OOOO_____OPO__ jtwc_wp WP281964 17.7000 120.200 65 1 17.6000 119.500 9 990 0 0 0 17.5000 119.800 4 68 991 17.3000 119.700 T 65 993 17.7000 120.200 TC 65 17.8400 120.226 4 65 17.7000 120.200 65 993 180 8 269
1964278N07156 1964 92 WP MM DOT 1964-10-09 21:00:00 TS 17.6270 119.586 main 74 74 PPPP_____PPP__ WP281964 17.6998 119.743 65 1 17.6496 119.205 9 990 0 0 17.6073 119.485 4 68 991 17.2621 119.435 T 65 994 17.6998 119.743 TC 65 17.7707 119.749 4 65 17.6998 119.743 65 994 180 7 272
1964278N07156 1964 92 WP MM DOT 1964-10-10 00:00:00 TS 17.6429 119.229 990 tokyo main 116 116 OOOO_____OOO__ jtwc_wp WP281964 17.7000 119.300 65 1 17.7000 119.000 9 990 0 0 0 17.7000 119.200 4 68 991 17.3000 119.200 T 65 995 17.7000 119.300 TC 65 17.7000 119.300 4 65 17.7000 119.300 65 995 180 7 272
1964278N07156 1964 92 WP MM DOT 1964-10-10 03:00:00 TS 17.6571 118.811 main 159 159 PPPP_____PPP__ WP281964 17.6425 118.827 65 1 17.7500 118.707 9 990 0 0 17.7575 118.857 4 68 991 17.4927 118.750 T 65 993 17.6425 118.827 TC 65 17.6722 118.880 4 66 17.6425 118.827 65 993 210 8 273
1964278N07156 1964 92 WP MM DOT 1964-10-10 06:00:00 TS 17.6792 118.413 990 tokyo main 201 201 OOOO_____OPO__ jtwc_wp WP281964 17.6000 118.400 65 1 17.8000 118.400 9 990 0 0 0 17.8000 118.500 4 68 991 17.7000 118.300 T 65 991 17.6000 118.400 TC 65 17.6547 118.490 4 67 17.6000 118.400 65 991 240 7 275
1964278N07156 1964 92 WP MM DOT 1964-10-10 09:00:00 TS 17.7163 118.091 main 233 233 PPPP_____PPP__ WP281964 17.6273 118.078 67 1 17.8500 118.100 9 990 0 0 17.8499 118.150 4 72 989 17.7723 118.027 T 65 989 17.6273 118.078 TC 67 17.6598 118.130 4 68 17.6273 118.078 67 989 240 6 279
1964278N07156 1964 92 WP MM DOT 1964-10-10 12:00:00 TS 17.7714 117.800 990 tokyo main 265 265 OOOO_____OOO__ jtwc_wp WP281964 17.7000 117.800 70 1 17.9000 117.800 9 990 0 0 0 17.9000 117.800 4 77 988 17.8000 117.800 T 65 987 17.7000 117.800 TC 70 17.7000 117.800 4 70 17.7000 117.800 70 987 240 6 282
1964278N07156 1964 92 WP MM DOT 1964-10-10 15:00:00 TS 17.8370 117.486 main 296 296 PPPP_____PPP__ WP281964 17.7850 117.492 72 1 17.9424 117.507 9 990 0 0 17.9425 117.427 4 77 987 17.8425 117.500 T 65 985 17.7850 117.492 TC 72 17.7766 117.488 4 72 17.7850 117.492 72 986 240 6 285
1964278N07156 1964 92 WP MM DOT 1964-10-10 18:00:00 TS 17.9271 117.186 990 tokyo main 329 329 OOOO_____OPO__ jtwc_wp WP281964 17.9000 117.200 75 1 18.0000 117.200 9 990 0 0 0 18.0000 117.100 4 77 986 17.9000 117.200 T 65 984 17.9000 117.200 TC 75 17.8897 117.205 4 75 17.9000 117.200 75 985 240 6 291
1964278N07156 1964 92 WP MM DOT 1964-10-10 21:00:00 TS 18.0429 116.916 main 362 362 PPPP_____PPP__ WP281964 18.0349 116.942 77 1 18.0776 116.820 9 988 0 0 18.0924 116.870 4 77 985 17.9924 116.950 T 67 984 18.0349 116.942 TC 77 18.0329 116.944 4 77 18.0349 116.942 77 984 270 6 298
1964278N07156 1964 92 WP MM DOT 1964-10-11 00:00:00 TS 18.1857 116.671 987 tokyo main 386 386 OOOO_____OOO__ jtwc_wp WP281964 18.2000 116.700 80 1 18.2000 116.500 9 987 0 0 0 18.2000 116.700 4 77 984 18.1000 116.700 T 70 984 18.2000 116.700 TC 80 18.2000 116.700 4 80 18.2000 116.700 80 984 300 5 304
1964278N07156 1964 92 WP MM DOT 1964-10-11 03:00:00 TS 18.3460 116.442 main 419 419 PPPP_____PPP__ WP281964 18.3925 116.443 82 1 18.3999 116.370 9 986 0 0 18.2924 116.565 4 82 984 18.1776 116.385 T 72 984 18.3925 116.443 TC 82 18.3743 116.444 4 82 18.3925 116.443 82 983 300 5 309
1964278N07156 1964 92 WP MM DOT 1964-10-11 06:00:00 TS 18.5243 116.229 986 tokyo main 445 439 OOOO_____OPO__ jtwc_wp WP281964 18.6000 116.200 85 2 18.6000 116.300 9 986 0 0 0 18.4000 116.400 5 87 984 18.3000 116.100 T 75 984 18.6000 116.200 TC 85 18.5700 116.205 4 85 18.6000 116.200 85 983 300 5 312
1964278N07156 1964 92 WP MM DOT 1964-10-11 09:00:00 TS 18.7051 116.016 main 439 411 PPPP_____PPP__ WP281964 18.8000 115.985 87 2 18.7000 116.150 9 986 0 0 18.5276 116.100 5 87 984 18.5274 115.920 T 77 984 18.8000 115.985 TC 87 18.7806 115.988 4 87 18.8000 115.985 87 982 270 5 315
1964278N07156 1964 92 WP MM DOT 1964-10-11 12:00:00 TS 18.9000 115.829 986 tokyo main 411 386 OOOO_____OOO__ jtwc_wp WP281964 19.0000 115.800 90 2 18.8000 116.000 9 986 0 0 0 18.7000 115.800 5 87 984 18.8000 115.800 T 80 984 19.0000 115.800 TC 90 19.0000 115.800 4 90 19.0000 115.800 90 982 240 5 322
1964278N07156 1964 92 WP MM DOT 1964-10-11 15:00:00 TS 19.1070 115.683 main 386 361 PPPP_____PPP__ WP281964 19.1925 115.635 90 2 18.9925 115.907 9 984 0 0 18.9349 115.613 5 87 984 19.0424 115.707 T 80 983 19.1925 115.635 TC 90 19.2014 115.646 4 90 19.1925 115.635 90 981 240 5 330
1964278N07156 1964 92 WP MM DOT 1964-10-11 18:00:00 TS 19.3303 115.560 982 tokyo main 361 333 OOOO_____OPO__ jtwc_wp WP281964 19.4000 115.500 90 2 19.2000 115.800 9 982 0 0 0 19.2000 115.500 5 87 984 19.3000 115.600 T 80 982 19.4000 115.500 TC 90 19.4123 115.520 4 90 19.4000 115.500 90 981 240 5 333
1964278N07156 1964 92 WP MM DOT 1964-10-11 21:00:00 TS 19.5542 115.437 main 322 298 PPPP_____PPP__ WP281964 19.6350 115.400 90 2 19.3051 115.600 9 982 0 0 19.4350 115.450 5 87 982 19.5926 115.400 T 80 981 19.6350 115.400 TC 90 19.6421 115.408 4 90 19.6350 115.400 90 979 270 5 334
1964278N07156 1964 92 WP MM DOT 1964-10-12 00:00:00 TS 19.8143 115.314 982 tokyo main 298 263 OOOO_____OOO__ jtwc_wp WP281964 19.9000 115.300 90 2 19.5000 115.400 9 982 0 0 0 19.7000 115.400 5 87 981 19.9000 115.200 T 80 980 19.9000 115.300 TC 90 19.9000 115.300 4 90 19.9000 115.300 90 978 300 6 337
1964278N07156 1964 92 WP MM DOT 1964-10-12 03:00:00 TS 20.1366 115.180 main 263 217 PPPP_____PPP__ WP281964 20.1850 115.150 90 2 19.9700 115.292 9 981 0 0 20.0350 115.258 5 87 978 20.1999 115.092 T 80 977 20.1850 115.150 TC 90 20.1963 115.167 4 90 20.1850 115.150 90 978 270 7 340
1964278N07156 1964 92 WP MM DOT 1964-10-12 06:00:00 TS 20.4886 115.048 980 tokyo main 213 178 OOOO_____OPO__ jtwc_wp WP281964 20.5000 115.000 90 2 20.5000 115.200 9 980 0 0 0 20.4000 115.100 5 87 975 20.5000 115.000 T 80 975 20.5000 115.000 TC 90 20.5200 115.035 4 90 20.5000 115.000 90 978 240 7 341
1964278N07156 1964 92 WP MM DOT 1964-10-12 09:00:00 TS 20.8352 114.928 main 178 133 PPPP_____PPP__ WP281964 20.8500 114.892 90 2 20.8875 115.057 9 980 0 0 20.7500 115.000 5 87 975 20.8000 114.850 T 80 975 20.8500 114.892 TC 90 20.8588 114.911 4 90 20.8500 114.892 90 977 210 7 342
1964278N07156 1964 92 WP MM DOT 1964-10-12 12:00:00 TS 21.1714 114.814 980 tokyo main 133 98 OOOO_____OOO__ jtwc_wp WP281964 21.2000 114.800 90 2 21.2000 114.900 9 980 0 0 0 21.1000 114.900 5 87 975 21.1000 114.700 T 80 975 21.2000 114.800 TC 90 21.2000 114.800 4 90 21.2000 114.800 90 977 180 7 341
1964278N07156 1964 92 WP MM DOT 1964-10-12 15:00:00 TS 21.4705 114.689 main 98 63 PPPP_____PPP__ WP281964 21.5000 114.692 90 2 21.4500 114.742 9 980 0 0 21.4425 114.735 5 87 975 21.3925 114.585 T 80 975 21.5000 114.692 TC 90 21.5087 114.686 4 90 21.5000 114.692 90 977 180 6 341
1964278N07156 1964 92 WP MM DOT 1964-10-12 18:00:00 TS 21.7743 114.584 980 tokyo main 63 30 OOOO_____OPO__ jtwc_wp WP281964 21.8000 114.600 90 2 21.7000 114.600 9 980 0 0 0 21.8000 114.600 5 87 975 21.7000 114.500 T 80 975 21.8000 114.600 TC 90 21.8200 114.590 4 90 21.8000 114.600 90 978 180 7 345
1964278N07156 1964 92 WP MM DOT 1964-10-12 21:00:00 TS 22.1119 114.511 main 30 0 PPPP_____PPP__ WP281964 22.1350 114.528 90 2 22.0350 114.492 9 980 0 0 22.1700 114.563 5 82 976 22.0275 114.413 T 80 975 22.1350 114.528 TC 90 22.1462 114.524 4 90 22.1350 114.528 90 978 180 7 353
1964278N07156 1964 92 WP MM DOT 1964-10-13 00:00:00 TS 22.4857 114.486 980 tokyo main 0 0 OOOO_____OOO__ jtwc_wp WP281964 22.5000 114.500 90 2 22.4000 114.400 9 980 0 0 0 22.6000 114.600 4 77 978 22.4000 114.400 T 80 975 22.5000 114.500 TC 90 22.5000 114.500 4 90 22.5000 114.500 90 979 180 8 2
1964278N07156 1964 92 WP MM DOT 1964-10-13 03:00:00 TS 22.8950 114.514 main 0 0 PPPP_____PPP__ WP281964 22.8850 114.527 75 1 22.7200 114.263 9 985 0 0 23.1575 114.700 4 57 984 22.8426 114.527 T 67 982 22.8850 114.527 TC 75 22.8900 114.526 4 76 22.8850 114.527 75 980 180 9 6
1964278N07156 1964 92 WP MM DOT 1964-10-13 06:00:00 TS 23.3361 114.577 990 tokyo main 0 0 OOOO_____OPO__ jtwc_wp WP281964 23.3000 114.600 60 0 23.1000 114.200 9 990 0 0 0 23.7000 114.800 3 38 990 23.3000 114.700 STS 55 990 23.3000 114.600 TC 60 23.3101 114.594 4 62 23.3000 114.600 60 981 180 9 8
1964278N07156 1964 92 WP MM DOT 1964-10-13 09:00:00 TS 23.7864 114.640 main 0 0 PPPP_____PPP__ WP281964 23.7425 114.695 47 0 23.6199 114.290 9 995 0 0 24.0725 114.793 3 28 995 23.7150 114.820 STS 42 993 23.7425 114.695 TC 47 23.7501 114.690 4 48 23.7425 114.695 47 983 150 9 8
1964278N07156 1964 92 WP MM DOT 1964-10-13 12:00:00 TS 24.2538 114.715 1000 tokyo main 0 0 OOOO_____OOO__ jtwc_wp WP281964 24.2000 114.800 35 0 24.2000 114.500 9 1000 0 0 0 24.4000 114.800 1 19 1000 24.1000 114.900 TD 30 997 24.2000 114.800 TC 35 24.2000 114.800 2 35 24.2000 114.800 35 986 120 10 9
1964278N07156 1964 92 WP MM DOT 1964-10-13 15:00:00 TS 24.7485 114.808 main 0 0 _PP___________ WP281964 -1 24.7423 114.748 9 1001 0 0 24.7547 114.868 1 18 1001 TD TC 2 11 19
1964278N07156 1964 92 WP MM DOT 1964-10-13 18:00:00 TS 25.2500 115.100 1002 tokyo main 0 0 _OO___________ -1 25.3000 115.100 2 1002 0 0 0 25.2000 115.100 1 17 1002 2 13 31
1964278N07156 1964 92 WP MM DOT 1964-10-13 21:00:00 TS 25.8902 115.579 main 0 0 _PP___________ -1 25.9373 115.547 2 1003 0 0 25.8430 115.611 1 17 1004 2 16 37
1964278N07156 1964 92 WP MM DOT 1964-10-14 00:00:00 TS 26.5000 116.150 1004 tokyo main 0 0 _OO___________ -1 26.5000 116.100 2 1004 0 0 0 26.5000 116.200 0 17 1006 14 43
1964278N07156 1964 92 WP MM DOT 1964-10-14 03:00:00 TS 26.9271 116.661 main 0 0 _PP___________ -1 26.8372 116.714 2 1004 0 0 27.0170 116.608 0 17 1006 12 51
1964278N07156 1964 92 WP MM DOT 1964-10-14 06:00:00 TS 27.2500 117.200 1004 tokyo main 0 0 _OO___________ -1 27.1000 117.400 2 1004 0 0 0 27.4000 117.000 0 17 1006 11 57
1964278N07156 1964 92 WP MM DOT 1964-10-14 09:00:00 TS 27.5384 117.729 main 0 0 _PP___________ -1 27.4793 118.105 2 1006 0 0 27.5976 117.353 0 17 1007 12 64
1964278N07156 1964 92 WP MM DOT 1964-10-14 12:00:00 TS 27.8000 118.450 1008 tokyo main 0 0 _OO___________ -1 27.8000 118.900 2 1008 0 0 0 27.8000 118.000 0 17 1008 17 71
1964278N07156 1964 92 WP MM DOT 1964-10-14 15:00:00 TS 28.1110 119.597 main 0 0 _PP___________ -1 27.9526 119.828 2 1008 0 0 28.2695 119.366 0 23 1008 21 75
1964278N07156 1964 92 WP MM DOT 1964-10-14 18:00:00 TS 28.3500 120.800 1009 tokyo main 0 0 _OO___________ -1 28.0000 120.800 2 1009 0 0 0 28.7000 120.800 1 29 1008 18 81
1964278N07156 1964 92 WP MM DOT 1964-10-14 21:00:00 TS 28.3948 121.670 main 9 9 _PP___________ -1 27.9398 121.739 2 1010 0 0 28.8498 121.600 1 29 1008 14 86
1964278N07156 1964 92 WP MM DOT 1964-10-15 00:00:00 MX 28.4500 122.400 1012 tokyo main 71 71 _OO___________ -1 28.0000 122.600 2 1012 0 0 0 28.9000 122.200 9 29 1008 14 74
1964278N07156 1964 92 WP MM DOT 1964-10-15 03:00:00 MX 28.7649 123.172 main 124 124 _PP___________ -1 28.4999 123.388 2 1010 0 0 29.0299 122.957 9 29 1008 14 65
1964278N07156 1964 92 WP MM DOT 1964-10-15 06:00:00 ET 29.0500 123.850 1009 tokyo main 184 184 _OO___________ -1 29.0000 124.000 6 1009 0 0 0 29.1000 123.700 9 29 1008 11 74
1964278N07156 1964 92 WP MM DOT 1964-10-15 09:00:00 ET 29.0514 124.337 main 223 223 _PP___________ -1 29.0743 124.361 6 1009 0 0 29.0286 124.313 9 29 1009 8 97
1964278N07156 1964 92 WP MM DOT 1964-10-15 12:00:00 ET 28.9500 124.800 1010 tokyo main 272 272 _OO___________ -1 29.0000 124.600 6 1010 0 0 0 28.9000 125.000 9 29 1010 10 100
1964278N07156 1964 92 WP MM DOT 1964-10-15 15:00:00 ET 28.8783 125.458 main 341 341 _PP___________ -1 28.9849 124.893 6 1010 0 0 28.7717 126.023 9 29 1010 11 95
1964278N07156 1964 92 WP MM DOT 1964-10-15 18:00:00 ET 28.8500 126.100 1010 tokyo main 399 399 _OO___________ -1 29.0000 125.200 6 1010 0 0 0 28.7000 127.000 9 29 1010 10 89
1964278N07156 1964 92 WP MM DOT 1964-10-15 21:00:00 ET 28.9006 126.559 main 430 400 _PP___________ -1 29.0473 125.521 6 1010 0 0 28.7539 127.597 9 29 1010 8 75
1964278N07156 1964 92 WP MM DOT 1964-10-16 00:00:00 ET 29.0500 126.950 1010 tokyo main 386 342 _OO___________ -1 29.2000 125.900 6 1010 0 0 0 28.9000 128.000 9 29 1010 8 61
1964278N07156 1964 92 WP MM DOT 1964-10-16 03:00:00 ET 29.2911 127.375 main 342 291 _PP___________ -1 29.5051 126.385 6 1008 0 0 29.0771 128.365 9 29 1008 9 53
1964278N07156 1964 92 WP MM DOT 1964-10-16 06:00:00 ET 29.6000 127.800 1006 tokyo main 291 240 _OO___________ -1 29.9000 126.900 6 1006 0 0 0 29.3000 128.700 9 29 1006 10 47
1964278N07156 1964 92 WP MM DOT 1964-10-16 09:00:00 ET 29.9503 128.176 main 233 189 _PP___________ -1 30.3433 127.260 6 1006 0 0 29.5574 129.092 9 29 1006 10 49
1964278N07156 1964 92 WP MM DOT 1964-10-16 12:00:00 ET 30.2500 128.650 1006 tokyo main 174 123 _OO___________ -1 30.7000 127.800 6 1006 0 0 0 29.8000 129.500 9 29 1006 11 68
1964278N07156 1964 92 WP MM DOT 1964-10-16 15:00:00 ET 30.3621 129.360 main 117 88 _PP___________ -1 30.7822 128.857 6 1006 0 0 29.9420 129.863 9 29 1006 13 81
1964278N07156 1964 92 WP MM DOT 1964-10-16 18:00:00 ET 30.4500 130.150 1006 tokyo main 73 44 _OO___________ -1 30.8000 130.000 6 1006 0 0 0 30.1000 130.300 9 29 1006 13 77
1964278N07156 1964 92 WP MM DOT 1964-10-16 21:00:00 ET 30.6620 130.869 main 38 38 _PP___________ -1 30.9613 130.818 6 1006 0 0 30.3628 130.920 9 29 1006 13 67
1964278N07156 1964 92 WP MM DOT 1964-10-17 00:00:00 ET 30.9500 131.550 1006 tokyo main 48 48 _OO___________ -1 31.2000 131.500 6 1006 0 0 0 30.7000 131.600 9 29 1006 13 60
1964278N07156 1964 92 WP MM DOT 1964-10-17 03:00:00 ET 31.3142 132.167 main 76 75 _PP___________ -1 31.5141 132.142 6 1005 0 0 31.1144 132.192 9 29 1004 13 57
1964278N07156 1964 92 WP MM DOT 1964-10-17 06:00:00 ET 31.6500 132.800 1004 tokyo main 113 100 _OO___________ -1 31.8000 132.800 6 1004 0 0 0 31.5000 132.800 9 29 1002 13 66
1964278N07156 1964 92 WP MM DOT 1964-10-17 09:00:00 ET 31.8371 133.517 main 110 105 _PP___________ -1 31.9449 133.578 6 1005 0 0 31.7293 133.456 9 29 1003 13 77
1964278N07156 1964 92 WP MM DOT 1964-10-17 12:00:00 ET 31.9500 134.300 1007 tokyo main 134 134 _OO___________ -1 32.0000 134.400 6 1007 0 0 0 31.9000 134.200 9 29 1005 14 81
1964278N07156 1964 92 WP MM DOT 1964-10-17 15:00:00 ET 32.0498 135.139 main 158 144 _PP___________ -1 32.0142 135.185 6 1006 0 0 32.0854 135.093 9 29 1005 15 82
1964278N07156 1964 92 WP MM DOT 1964-10-17 18:00:00 ET 32.1500 136.000 1005 tokyo main 135 135 _OO___________ -1 32.0000 136.000 6 1005 0 0 0 32.3000 136.000 9 29 1005 14 81
1964278N07156 1964 92 WP MM DOT 1964-10-17 21:00:00 ET 32.2762 136.796 main 154 154 _PP___________ -1 31.9615 136.856 6 1006 0 0 32.5909 136.735 9 29 1006 14 78
1964278N07156 1964 92 WP MM DOT 1964-10-18 00:00:00 ET 32.4500 137.650 1008 tokyo main 200 192 _OO___________ -1 32.0000 137.800 6 1008 0 0 0 32.9000 137.500 9 29 1007 16 75
1964278N07156 1964 92 WP MM DOT 1964-10-18 03:00:00 ET 32.7001 138.673 main 212 195 _PP___________ -1 32.2127 138.884 6 1007 0 0 33.1875 138.462 9 29 1006 18 74
1964278N07156 1964 92 WP MM DOT 1964-10-18 06:00:00 ET 32.9500 139.750 1007 tokyo main 200 200 _OO___________ -1 32.5000 140.000 6 1007 0 0 0 33.4000 139.500 9 29 1006 18 77
1964278N07156 1964 92 WP MM DOT 1964-10-18 09:00:00 ET 33.1261 140.795 main 217 214 _PP___________ -1 32.7871 141.052 6 1006 0 0 33.4650 140.539 9 29 1006 17 80
1964278N07156 1964 92 WP MM DOT 1964-10-18 12:00:00 ET 33.2500 141.750 1006 tokyo main 247 247 _OO___________ -1 33.0000 142.000 6 1006 0 0 0 33.5000 141.500 9 29 1006 15 82
1964278N07156 1964 92 WP MM DOT 1964-10-18 15:00:00 ET 33.3347 142.519 main 286 286 _PP___________ -1 33.0363 142.789 6 1006 0 0 33.6330 142.250 9 1006 13 83
1964278N07156 1964 92 WP MM DOT 1964-10-18 18:00:00 ET 33.4000 143.250 1006 tokyo main 333 333 _OO___________ -1 33.0000 143.500 6 1006 0 0 0 33.8000 143.000 9 1006 13 86
1964278N07156 1964 92 WP MM DOT 1964-10-18 21:00:00 ET 33.4281 144.037 main 382 382 _PP___________ -1 32.9375 144.163 6 1007 0 0 33.9186 143.912 9 1007 15 84
1964278N07156 1964 92 WP MM DOT 1964-10-19 00:00:00 ET 33.5500 145.000 1008 tokyo main 441 447 _OO___________ -1 33.0000 145.000 6 1008 0 0 0 34.1000 145.000 9 1008 19 77
1964278N07156 1964 92 WP MM DOT 1964-10-19 03:00:00 ET 33.8539 146.264 main 531 531 _PP___________ -1 33.3181 146.245 6 1010 0 0 34.3897 146.284 9 1010 24 72
1964278N07156 1964 92 WP MM DOT 1964-10-19 06:00:00 ET 34.3000 147.700 1012 tokyo main 637 637 _OO___________ -1 33.8000 147.700 6 1012 0 0 0 34.8000 147.700 9 1012 26 68
1964278N07156 1964 92 WP MM DOT 1964-10-19 09:00:00 ET 34.8326 149.150 main 749 749 _PP___________ -1 34.3423 149.157 6 1014 0 0 35.3229 149.143 9 1014 26 65
1964278N07156 1964 92 WP MM DOT 1964-10-19 12:00:00 ET 35.4000 150.600 1016 tokyo main 869 _OO___________ -1 34.9000 150.600 6 1016 0 0 0 35.9000 150.600 9 1016 26 64

Digital Typhoon Data and Search

About IBTrACS Database

This database is a web-friendly format of International Best Track Archive for Climate Stewardship (IBTrACS), a global best track data archive curated by NOAA dating back to 1842.

Updated: 2021-11-26